sensor_id;sensor_type;location;lat;lon;timestamp;P1;durP1;ratioP1;P2;durP2;ratioP2
35877;SDS011;21982;49.804;24.072;2023-06-22T00:01:15;16.35;;;9.07;;
35877;SDS011;21982;49.804;24.072;2023-06-22T00:03:41;16.30;;;9.57;;
35877;SDS011;21982;49.804;24.072;2023-06-22T00:06:06;15.93;;;10.25;;
35877;SDS011;21982;49.804;24.072;2023-06-22T00:11:07;16.40;;;10.07;;
35877;SDS011;21982;49.804;24.072;2023-06-22T00:13:54;16.10;;;10.10;;
35877;SDS011;21982;49.804;24.072;2023-06-22T00:16:19;15.88;;;10.13;;
35877;SDS011;21982;49.804;24.072;2023-06-22T00:18:44;16.50;;;10.82;;
35877;SDS011;21982;49.804;24.072;2023-06-22T00:21:12;17.00;;;10.80;;
35877;SDS011;21982;49.804;24.072;2023-06-22T00:23:38;16.88;;;9.55;;
35877;SDS011;21982;49.804;24.072;2023-06-22T00:26:04;14.13;;;9.15;;
35877;SDS011;21982;49.804;24.072;2023-06-22T00:28:30;15.48;;;10.43;;
35877;SDS011;21982;49.804;24.072;2023-06-22T00:30:56;16.23;;;10.10;;
35877;SDS011;21982;49.804;24.072;2023-06-22T00:33:21;13.73;;;9.40;;
35877;SDS011;21982;49.804;24.072;2023-06-22T00:35:47;13.70;;;8.82;;
35877;SDS011;21982;49.804;24.072;2023-06-22T00:38:12;14.05;;;9.10;;
35877;SDS011;21982;49.804;24.072;2023-06-22T00:40:38;15.43;;;10.32;;
35877;SDS011;21982;49.804;24.072;2023-06-22T00:43:04;16.10;;;9.50;;
35877;SDS011;21982;49.804;24.072;2023-06-22T00:45:30;18.90;;;10.68;;
35877;SDS011;21982;49.804;24.072;2023-06-22T00:47:58;13.77;;;8.98;;
35877;SDS011;21982;49.804;24.072;2023-06-22T00:50:25;14.10;;;8.10;;
35877;SDS011;21982;49.804;24.072;2023-06-22T00:55:27;14.98;;;8.88;;
35877;SDS011;21982;49.804;24.072;2023-06-22T00:57:54;20.67;;;9.77;;
35877;SDS011;21982;49.804;24.072;2023-06-22T01:00:21;16.20;;;9.38;;
35877;SDS011;21982;49.804;24.072;2023-06-22T01:02:49;13.95;;;8.77;;
35877;SDS011;21982;49.804;24.072;2023-06-22T01:05:17;13.48;;;8.70;;
35877;SDS011;21982;49.804;24.072;2023-06-22T01:10:25;14.52;;;8.80;;
35877;SDS011;21982;49.804;24.072;2023-06-22T01:13:07;13.60;;;8.95;;
35877;SDS011;21982;49.804;24.072;2023-06-22T01:18:11;13.43;;;8.65;;
35877;SDS011;21982;49.804;24.072;2023-06-22T01:20:39;16.88;;;8.05;;
35877;SDS011;21982;49.804;24.072;2023-06-22T01:28:54;13.98;;;8.57;;
35877;SDS011;21982;49.804;24.072;2023-06-22T01:31:23;15.23;;;8.63;;
35877;SDS011;21982;49.804;24.072;2023-06-22T01:33:51;16.75;;;9.55;;
35877;SDS011;21982;49.804;24.072;2023-06-22T01:36:20;15.25;;;9.20;;
35877;SDS011;21982;49.804;24.072;2023-06-22T01:38:48;16.48;;;9.77;;
35877;SDS011;21982;49.804;24.072;2023-06-22T01:41:14;14.20;;;9.65;;
35877;SDS011;21982;49.804;24.072;2023-06-22T01:43:41;16.92;;;9.40;;
35877;SDS011;21982;49.804;24.072;2023-06-22T01:46:07;15.50;;;10.60;;
35877;SDS011;21982;49.804;24.072;2023-06-22T01:48:33;17.45;;;8.98;;
35877;SDS011;21982;49.804;24.072;2023-06-22T01:51:02;14.35;;;9.02;;
35877;SDS011;21982;49.804;24.072;2023-06-22T01:53:37;14.68;;;9.45;;
35877;SDS011;21982;49.804;24.072;2023-06-22T01:56:03;14.77;;;8.95;;
35877;SDS011;21982;49.804;24.072;2023-06-22T01:58:29;17.10;;;10.05;;
35877;SDS011;21982;49.804;24.072;2023-06-22T02:00:57;17.70;;;9.18;;
35877;SDS011;21982;49.804;24.072;2023-06-22T02:03:33;12.50;;;8.55;;
35877;SDS011;21982;49.804;24.072;2023-06-22T02:06:06;17.30;;;9.10;;
35877;SDS011;21982;49.804;24.072;2023-06-22T02:08:41;15.13;;;9.35;;
35877;SDS011;21982;49.804;24.072;2023-06-22T02:13:42;14.30;;;8.75;;
35877;SDS011;21982;49.804;24.072;2023-06-22T02:18:58;13.57;;;9.20;;
35877;SDS011;21982;49.804;24.072;2023-06-22T02:21:28;15.00;;;9.77;;
35877;SDS011;21982;49.804;24.072;2023-06-22T02:23:56;16.08;;;10.00;;
35877;SDS011;21982;49.804;24.072;2023-06-22T02:26:22;15.88;;;9.93;;
35877;SDS011;21982;49.804;24.072;2023-06-22T02:28:48;15.75;;;9.55;;
35877;SDS011;21982;49.804;24.072;2023-06-22T02:31:16;15.25;;;9.10;;
35877;SDS011;21982;49.804;24.072;2023-06-22T02:33:42;16.40;;;10.52;;
35877;SDS011;21982;49.804;24.072;2023-06-22T02:36:09;17.40;;;10.00;;
35877;SDS011;21982;49.804;24.072;2023-06-22T02:38:38;15.80;;;9.60;;
35877;SDS011;21982;49.804;24.072;2023-06-22T02:41:16;16.15;;;9.85;;
35877;SDS011;21982;49.804;24.072;2023-06-22T02:43:45;17.27;;;10.52;;
35877;SDS011;21982;49.804;24.072;2023-06-22T02:46:11;18.25;;;10.55;;
35877;SDS011;21982;49.804;24.072;2023-06-22T02:48:39;15.93;;;10.23;;
35877;SDS011;21982;49.804;24.072;2023-06-22T02:51:06;18.83;;;10.88;;
35877;SDS011;21982;49.804;24.072;2023-06-22T02:53:32;16.70;;;10.27;;
35877;SDS011;21982;49.804;24.072;2023-06-22T02:55:57;17.77;;;10.57;;
35877;SDS011;21982;49.804;24.072;2023-06-22T02:58:23;19.98;;;10.07;;
35877;SDS011;21982;49.804;24.072;2023-06-22T03:00:49;17.58;;;9.63;;
35877;SDS011;21982;49.804;24.072;2023-06-22T03:03:18;15.35;;;9.27;;
35877;SDS011;21982;49.804;24.072;2023-06-22T03:05:46;17.65;;;10.00;;
35877;SDS011;21982;49.804;24.072;2023-06-22T03:08:11;19.90;;;10.43;;
35877;SDS011;21982;49.804;24.072;2023-06-22T03:10:37;20.00;;;9.75;;
35877;SDS011;21982;49.804;24.072;2023-06-22T03:13:03;15.75;;;9.68;;
35877;SDS011;21982;49.804;24.072;2023-06-22T03:15:29;15.55;;;9.98;;
35877;SDS011;21982;49.804;24.072;2023-06-22T03:17:56;19.80;;;8.90;;
35877;SDS011;21982;49.804;24.072;2023-06-22T03:20:21;18.35;;;9.57;;
35877;SDS011;21982;49.804;24.072;2023-06-22T03:22:47;19.05;;;10.82;;
35877;SDS011;21982;49.804;24.072;2023-06-22T03:25:14;16.25;;;9.80;;
35877;SDS011;21982;49.804;24.072;2023-06-22T03:27:40;19.73;;;10.70;;
35877;SDS011;21982;49.804;24.072;2023-06-22T03:30:07;19.08;;;9.95;;
35877;SDS011;21982;49.804;24.072;2023-06-22T03:32:38;20.17;;;11.10;;
35877;SDS011;21982;49.804;24.072;2023-06-22T03:35:04;15.77;;;10.07;;
35877;SDS011;21982;49.804;24.072;2023-06-22T03:37:31;15.70;;;8.82;;
35877;SDS011;21982;49.804;24.072;2023-06-22T03:39:56;17.73;;;10.02;;
35877;SDS011;21982;49.804;24.072;2023-06-22T03:42:22;15.48;;;9.73;;
35877;SDS011;21982;49.804;24.072;2023-06-22T03:44:48;16.20;;;10.57;;
35877;SDS011;21982;49.804;24.072;2023-06-22T03:47:13;18.65;;;9.77;;
35877;SDS011;21982;49.804;24.072;2023-06-22T03:49:39;22.17;;;10.25;;
35877;SDS011;21982;49.804;24.072;2023-06-22T03:52:05;17.45;;;9.32;;
35877;SDS011;21982;49.804;24.072;2023-06-22T03:54:30;14.25;;;8.82;;
35877;SDS011;21982;49.804;24.072;2023-06-22T03:56:56;16.98;;;9.00;;
35877;SDS011;21982;49.804;24.072;2023-06-22T03:59:22;20.90;;;8.73;;
35877;SDS011;21982;49.804;24.072;2023-06-22T04:01:49;15.40;;;9.32;;
35877;SDS011;21982;49.804;24.072;2023-06-22T04:04:15;15.32;;;8.52;;
35877;SDS011;21982;49.804;24.072;2023-06-22T04:06:41;18.27;;;9.32;;
35877;SDS011;21982;49.804;24.072;2023-06-22T04:09:06;14.95;;;9.18;;
35877;SDS011;21982;49.804;24.072;2023-06-22T04:11:32;14.45;;;8.98;;
35877;SDS011;21982;49.804;24.072;2023-06-22T04:13:58;20.35;;;9.80;;
35877;SDS011;21982;49.804;24.072;2023-06-22T04:16:25;16.65;;;8.55;;
35877;SDS011;21982;49.804;24.072;2023-06-22T04:18:51;14.15;;;7.60;;
35877;SDS011;21982;49.804;24.072;2023-06-22T04:21:16;18.23;;;8.43;;
35877;SDS011;21982;49.804;24.072;2023-06-22T04:23:44;14.65;;;7.57;;
35877;SDS011;21982;49.804;24.072;2023-06-22T04:26:11;15.77;;;8.20;;
35877;SDS011;21982;49.804;24.072;2023-06-22T04:28:36;18.77;;;7.78;;
35877;SDS011;21982;49.804;24.072;2023-06-22T04:31:02;15.40;;;7.85;;
35877;SDS011;21982;49.804;24.072;2023-06-22T04:33:29;14.02;;;7.70;;
35877;SDS011;21982;49.804;24.072;2023-06-22T04:35:56;17.67;;;6.97;;
35877;SDS011;21982;49.804;24.072;2023-06-22T04:38:22;16.33;;;8.05;;
35877;SDS011;21982;49.804;24.072;2023-06-22T04:40:49;12.75;;;7.78;;
35877;SDS011;21982;49.804;24.072;2023-06-22T04:43:45;18.20;;;7.53;;
35877;SDS011;21982;49.804;24.072;2023-06-22T04:46:19;13.45;;;7.00;;
35877;SDS011;21982;49.804;24.072;2023-06-22T04:48:44;13.15;;;6.50;;
35877;SDS011;21982;49.804;24.072;2023-06-22T04:51:10;16.88;;;8.50;;
35877;SDS011;21982;49.804;24.072;2023-06-22T04:53:35;17.40;;;8.02;;
35877;SDS011;21982;49.804;24.072;2023-06-22T04:56:01;18.33;;;8.32;;
35877;SDS011;21982;49.804;24.072;2023-06-22T04:58:29;14.85;;;7.28;;
35877;SDS011;21982;49.804;24.072;2023-06-22T05:03:49;12.45;;;7.20;;
35877;SDS011;21982;49.804;24.072;2023-06-22T05:06:22;13.35;;;8.32;;
35877;SDS011;21982;49.804;24.072;2023-06-22T05:08:56;13.77;;;7.40;;
35877;SDS011;21982;49.804;24.072;2023-06-22T05:11:28;14.25;;;6.97;;
35877;SDS011;21982;49.804;24.072;2023-06-22T05:13:54;15.85;;;8.35;;
35877;SDS011;21982;49.804;24.072;2023-06-22T05:16:20;15.90;;;6.75;;
35877;SDS011;21982;49.804;24.072;2023-06-22T05:18:54;15.50;;;7.55;;
35877;SDS011;21982;49.804;24.072;2023-06-22T05:21:23;17.00;;;7.70;;
35877;SDS011;21982;49.804;24.072;2023-06-22T05:23:50;17.13;;;7.38;;
35877;SDS011;21982;49.804;24.072;2023-06-22T05:26:16;23.35;;;6.43;;
35877;SDS011;21982;49.804;24.072;2023-06-22T05:28:42;15.07;;;7.10;;
35877;SDS011;21982;49.804;24.072;2023-06-22T05:31:14;11.40;;;5.80;;
35877;SDS011;21982;49.804;24.072;2023-06-22T05:33:46;10.38;;;5.78;;
35877;SDS011;21982;49.804;24.072;2023-06-22T05:36:14;15.55;;;6.85;;
35877;SDS011;21982;49.804;24.072;2023-06-22T05:38:41;11.32;;;6.50;;
35877;SDS011;21982;49.804;24.072;2023-06-22T05:41:07;11.48;;;7.05;;
35877;SDS011;21982;49.804;24.072;2023-06-22T05:43:33;10.68;;;6.65;;
35877;SDS011;21982;49.804;24.072;2023-06-22T05:45:59;13.10;;;7.25;;
35877;SDS011;21982;49.804;24.072;2023-06-22T05:48:29;10.90;;;5.97;;
35877;SDS011;21982;49.804;24.072;2023-06-22T05:50:54;10.32;;;6.25;;
35877;SDS011;21982;49.804;24.072;2023-06-22T05:53:19;9.73;;;6.75;;
35877;SDS011;21982;49.804;24.072;2023-06-22T05:55:45;8.98;;;6.18;;
35877;SDS011;21982;49.804;24.072;2023-06-22T05:58:15;12.52;;;5.97;;
35877;SDS011;21982;49.804;24.072;2023-06-22T06:00:40;10.85;;;5.57;;
35877;SDS011;21982;49.804;24.072;2023-06-22T06:03:07;11.30;;;6.55;;
35877;SDS011;21982;49.804;24.072;2023-06-22T06:05:33;12.60;;;6.70;;
35877;SDS011;21982;49.804;24.072;2023-06-22T06:08:03;14.40;;;7.10;;
35877;SDS011;21982;49.804;24.072;2023-06-22T06:10:30;13.77;;;7.78;;
35877;SDS011;21982;49.804;24.072;2023-06-22T06:13:19;12.48;;;6.07;;
35877;SDS011;21982;49.804;24.072;2023-06-22T06:15:44;10.25;;;5.75;;
35877;SDS011;21982;49.804;24.072;2023-06-22T06:18:10;10.63;;;5.70;;
35877;SDS011;21982;49.804;24.072;2023-06-22T06:20:37;10.25;;;6.45;;
35877;SDS011;21982;49.804;24.072;2023-06-22T06:23:02;10.05;;;5.93;;
35877;SDS011;21982;49.804;24.072;2023-06-22T06:25:29;10.73;;;5.55;;
35877;SDS011;21982;49.804;24.072;2023-06-22T06:27:58;14.15;;;6.68;;
35877;SDS011;21982;49.804;24.072;2023-06-22T06:30:23;14.10;;;6.63;;
35877;SDS011;21982;49.804;24.072;2023-06-22T06:32:49;10.38;;;5.85;;
35877;SDS011;21982;49.804;24.072;2023-06-22T06:35:14;11.32;;;6.00;;
35877;SDS011;21982;49.804;24.072;2023-06-22T06:37:42;11.10;;;6.32;;
35877;SDS011;21982;49.804;24.072;2023-06-22T06:40:10;10.02;;;5.60;;
35877;SDS011;21982;49.804;24.072;2023-06-22T06:42:40;9.30;;;6.25;;
35877;SDS011;21982;49.804;24.072;2023-06-22T06:45:29;11.80;;;5.20;;
35877;SDS011;21982;49.804;24.072;2023-06-22T06:47:57;11.68;;;5.47;;
35877;SDS011;21982;49.804;24.072;2023-06-22T06:50:23;15.98;;;5.68;;
35877;SDS011;21982;49.804;24.072;2023-06-22T06:52:48;11.60;;;5.18;;
35877;SDS011;21982;49.804;24.072;2023-06-22T06:55:16;9.85;;;5.35;;
35877;SDS011;21982;49.804;24.072;2023-06-22T06:57:42;8.95;;;5.20;;
35877;SDS011;21982;49.804;24.072;2023-06-22T07:00:08;11.95;;;5.22;;
35877;SDS011;21982;49.804;24.072;2023-06-22T07:02:42;12.05;;;5.70;;
35877;SDS011;21982;49.804;24.072;2023-06-22T07:05:09;11.07;;;4.90;;
35877;SDS011;21982;49.804;24.072;2023-06-22T07:07:36;7.88;;;4.65;;
35877;SDS011;21982;49.804;24.072;2023-06-22T07:10:02;8.43;;;5.05;;
35877;SDS011;21982;49.804;24.072;2023-06-22T07:12:29;8.27;;;4.63;;
35877;SDS011;21982;49.804;24.072;2023-06-22T07:14:57;9.45;;;4.78;;
35877;SDS011;21982;49.804;24.072;2023-06-22T07:17:27;9.68;;;4.93;;
35877;SDS011;21982;49.804;24.072;2023-06-22T07:19:52;9.52;;;5.30;;
35877;SDS011;21982;49.804;24.072;2023-06-22T07:22:18;10.65;;;5.07;;
35877;SDS011;21982;49.804;24.072;2023-06-22T07:24:43;8.30;;;4.15;;
35877;SDS011;21982;49.804;24.072;2023-06-22T07:27:09;8.82;;;5.13;;
35877;SDS011;21982;49.804;24.072;2023-06-22T07:29:36;8.00;;;5.38;;
35877;SDS011;21982;49.804;24.072;2023-06-22T07:32:01;9.18;;;5.22;;
35877;SDS011;21982;49.804;24.072;2023-06-22T07:34:29;9.88;;;4.70;;
35877;SDS011;21982;49.804;24.072;2023-06-22T07:36:55;9.30;;;5.25;;
35877;SDS011;21982;49.804;24.072;2023-06-22T07:39:21;8.05;;;4.68;;
35877;SDS011;21982;49.804;24.072;2023-06-22T07:41:50;8.23;;;5.00;;
35877;SDS011;21982;49.804;24.072;2023-06-22T07:44:16;32.95;;;8.00;;
35877;SDS011;21982;49.804;24.072;2023-06-22T07:46:42;7.68;;;4.38;;
35877;SDS011;21982;49.804;24.072;2023-06-22T07:49:07;11.60;;;5.10;;
35877;SDS011;21982;49.804;24.072;2023-06-22T07:51:33;10.85;;;5.90;;
35877;SDS011;21982;49.804;24.072;2023-06-22T07:54:00;9.05;;;5.05;;
35877;SDS011;21982;49.804;24.072;2023-06-22T07:56:26;13.15;;;7.25;;
35877;SDS011;21982;49.804;24.072;2023-06-22T07:58:51;8.10;;;4.63;;
35877;SDS011;21982;49.804;24.072;2023-06-22T08:01:18;7.28;;;5.05;;
35877;SDS011;21982;49.804;24.072;2023-06-22T08:03:46;12.05;;;5.85;;
35877;SDS011;21982;49.804;24.072;2023-06-22T08:06:13;11.05;;;5.55;;
35877;SDS011;21982;49.804;24.072;2023-06-22T08:08:38;9.05;;;5.30;;
35877;SDS011;21982;49.804;24.072;2023-06-22T08:11:03;9.18;;;5.43;;
35877;SDS011;21982;49.804;24.072;2023-06-22T08:13:30;10.63;;;5.63;;
35877;SDS011;21982;49.804;24.072;2023-06-22T08:15:56;9.30;;;5.00;;
35877;SDS011;21982;49.804;24.072;2023-06-22T08:18:21;9.73;;;5.95;;
35877;SDS011;21982;49.804;24.072;2023-06-22T08:20:47;9.50;;;5.72;;
35877;SDS011;21982;49.804;24.072;2023-06-22T08:23:12;8.27;;;5.15;;
35877;SDS011;21982;49.804;24.072;2023-06-22T08:25:38;11.63;;;6.18;;
35877;SDS011;21982;49.804;24.072;2023-06-22T08:28:03;12.93;;;7.72;;
35877;SDS011;21982;49.804;24.072;2023-06-22T08:30:30;11.38;;;6.15;;
35877;SDS011;21982;49.804;24.072;2023-06-22T08:32:55;10.27;;;5.63;;
35877;SDS011;21982;49.804;24.072;2023-06-22T08:35:23;10.45;;;5.60;;
35877;SDS011;21982;49.804;24.072;2023-06-22T08:37:49;10.10;;;6.43;;
35877;SDS011;21982;49.804;24.072;2023-06-22T08:40:20;8.70;;;6.00;;
35877;SDS011;21982;49.804;24.072;2023-06-22T08:42:46;11.88;;;6.00;;
35877;SDS011;21982;49.804;24.072;2023-06-22T08:45:14;9.10;;;5.20;;
35877;SDS011;21982;49.804;24.072;2023-06-22T08:47:40;8.20;;;5.40;;
35877;SDS011;21982;49.804;24.072;2023-06-22T08:50:07;9.52;;;5.53;;
35877;SDS011;21982;49.804;24.072;2023-06-22T08:52:36;8.27;;;5.13;;
35877;SDS011;21982;49.804;24.072;2023-06-22T08:55:06;11.20;;;5.50;;
35877;SDS011;21982;49.804;24.072;2023-06-22T08:57:32;9.95;;;5.72;;
35877;SDS011;21982;49.804;24.072;2023-06-22T08:59:57;9.30;;;5.43;;
35877;SDS011;21982;49.804;24.072;2023-06-22T09:02:24;10.57;;;6.03;;
35877;SDS011;21982;49.804;24.072;2023-06-22T09:04:50;8.95;;;5.53;;
35877;SDS011;21982;49.804;24.072;2023-06-22T09:07:23;8.80;;;5.60;;
35877;SDS011;21982;49.804;24.072;2023-06-22T09:09:50;13.23;;;6.15;;
35877;SDS011;21982;49.804;24.072;2023-06-22T09:12:16;10.82;;;5.85;;
35877;SDS011;21982;49.804;24.072;2023-06-22T09:14:50;9.05;;;5.25;;
35877;SDS011;21982;49.804;24.072;2023-06-22T09:17:16;9.80;;;5.10;;
35877;SDS011;21982;49.804;24.072;2023-06-22T09:19:41;8.50;;;5.88;;
35877;SDS011;21982;49.804;24.072;2023-06-22T09:22:07;8.93;;;5.50;;
35877;SDS011;21982;49.804;24.072;2023-06-22T09:24:32;9.05;;;5.45;;
35877;SDS011;21982;49.804;24.072;2023-06-22T09:26:58;9.98;;;5.68;;
35877;SDS011;21982;49.804;24.072;2023-06-22T09:29:24;9.63;;;5.38;;
35877;SDS011;21982;49.804;24.072;2023-06-22T09:31:50;15.02;;;7.25;;
35877;SDS011;21982;49.804;24.072;2023-06-22T09:34:15;11.88;;;7.13;;
35877;SDS011;21982;49.804;24.072;2023-06-22T09:36:45;10.90;;;8.00;;
35877;SDS011;21982;49.804;24.072;2023-06-22T09:39:10;12.27;;;8.40;;
35877;SDS011;21982;49.804;24.072;2023-06-22T09:41:36;13.30;;;6.50;;
35877;SDS011;21982;49.804;24.072;2023-06-22T09:44:01;8.20;;;5.47;;
35877;SDS011;21982;49.804;24.072;2023-06-22T09:46:26;9.07;;;6.20;;
35877;SDS011;21982;49.804;24.072;2023-06-22T09:48:53;9.60;;;5.82;;
35877;SDS011;21982;49.804;24.072;2023-06-22T09:51:18;9.35;;;5.47;;
35877;SDS011;21982;49.804;24.072;2023-06-22T09:53:46;8.75;;;5.40;;
35877;SDS011;21982;49.804;24.072;2023-06-22T09:56:11;9.90;;;6.25;;
35877;SDS011;21982;49.804;24.072;2023-06-22T09:58:40;8.70;;;6.20;;
35877;SDS011;21982;49.804;24.072;2023-06-22T10:01:09;10.95;;;6.05;;
35877;SDS011;21982;49.804;24.072;2023-06-22T10:03:35;10.77;;;7.40;;
35877;SDS011;21982;49.804;24.072;2023-06-22T10:06:01;11.05;;;6.97;;
35877;SDS011;21982;49.804;24.072;2023-06-22T10:08:28;10.30;;;6.18;;
35877;SDS011;21982;49.804;24.072;2023-06-22T10:10:54;10.45;;;6.35;;
35877;SDS011;21982;49.804;24.072;2023-06-22T10:13:19;12.30;;;7.57;;
35877;SDS011;21982;49.804;24.072;2023-06-22T10:15:45;10.68;;;6.38;;
35877;SDS011;21982;49.804;24.072;2023-06-22T10:18:16;10.80;;;8.20;;
35877;SDS011;21982;49.804;24.072;2023-06-22T10:20:42;12.80;;;7.97;;
35877;SDS011;21982;49.804;24.072;2023-06-22T10:23:10;10.88;;;6.82;;
35877;SDS011;21982;49.804;24.072;2023-06-22T10:25:36;10.05;;;7.55;;
35877;SDS011;21982;49.804;24.072;2023-06-22T10:28:02;9.05;;;6.53;;
35877;SDS011;21982;49.804;24.072;2023-06-22T10:30:30;9.35;;;6.25;;
35877;SDS011;21982;49.804;24.072;2023-06-22T10:32:57;11.70;;;7.47;;
35877;SDS011;21982;49.804;24.072;2023-06-22T10:35:24;12.52;;;8.70;;
35877;SDS011;21982;49.804;24.072;2023-06-22T10:37:52;13.07;;;8.75;;
35877;SDS011;21982;49.804;24.072;2023-06-22T10:40:18;11.88;;;7.65;;
35877;SDS011;21982;49.804;24.072;2023-06-22T10:42:43;14.73;;;9.20;;
35877;SDS011;21982;49.804;24.072;2023-06-22T10:45:11;11.48;;;7.13;;
35877;SDS011;21982;49.804;24.072;2023-06-22T10:47:37;11.23;;;8.18;;
35877;SDS011;21982;49.804;24.072;2023-06-22T10:50:03;14.57;;;9.40;;
35877;SDS011;21982;49.804;24.072;2023-06-22T10:52:29;11.32;;;8.13;;
35877;SDS011;21982;49.804;24.072;2023-06-22T10:54:55;16.13;;;10.02;;
35877;SDS011;21982;49.804;24.072;2023-06-22T10:57:22;11.73;;;7.60;;
35877;SDS011;21982;49.804;24.072;2023-06-22T10:59:48;10.10;;;7.10;;
35877;SDS011;21982;49.804;24.072;2023-06-22T11:02:13;17.77;;;7.65;;
35877;SDS011;21982;49.804;24.072;2023-06-22T11:04:38;10.65;;;7.70;;
35877;SDS011;21982;49.804;24.072;2023-06-22T11:07:04;12.40;;;9.02;;
35877;SDS011;21982;49.804;24.072;2023-06-22T11:09:29;13.75;;;9.00;;
35877;SDS011;21982;49.804;24.072;2023-06-22T11:11:55;10.45;;;8.57;;
35877;SDS011;21982;49.804;24.072;2023-06-22T11:14:21;15.32;;;10.00;;
35877;SDS011;21982;49.804;24.072;2023-06-22T11:16:47;11.27;;;9.10;;
35877;SDS011;21982;49.804;24.072;2023-06-22T11:19:12;14.43;;;9.23;;
35877;SDS011;21982;49.804;24.072;2023-06-22T11:21:38;18.73;;;12.00;;
35877;SDS011;21982;49.804;24.072;2023-06-22T11:24:03;15.27;;;10.02;;
35877;SDS011;21982;49.804;24.072;2023-06-22T11:26:29;13.45;;;9.85;;
35877;SDS011;21982;49.804;24.072;2023-06-22T11:28:55;13.90;;;9.30;;
35877;SDS011;21982;49.804;24.072;2023-06-22T11:31:20;14.18;;;9.90;;
35877;SDS011;21982;49.804;24.072;2023-06-22T11:33:46;12.45;;;7.43;;
35877;SDS011;21982;49.804;24.072;2023-06-22T11:36:12;16.55;;;10.60;;
35877;SDS011;21982;49.804;24.072;2023-06-22T11:38:39;11.35;;;8.93;;
35877;SDS011;21982;49.804;24.072;2023-06-22T11:41:05;14.40;;;10.75;;
35877;SDS011;21982;49.804;24.072;2023-06-22T11:43:34;13.13;;;9.93;;
35877;SDS011;21982;49.804;24.072;2023-06-22T11:46:00;15.57;;;9.55;;
35877;SDS011;21982;49.804;24.072;2023-06-22T11:48:27;16.70;;;10.13;;
35877;SDS011;21982;49.804;24.072;2023-06-22T11:50:52;12.20;;;8.32;;
35877;SDS011;21982;49.804;24.072;2023-06-22T11:53:20;12.98;;;9.50;;
35877;SDS011;21982;49.804;24.072;2023-06-22T11:55:46;13.32;;;10.50;;
35877;SDS011;21982;49.804;24.072;2023-06-22T11:58:12;14.25;;;9.85;;
35877;SDS011;21982;49.804;24.072;2023-06-22T12:00:38;12.35;;;8.70;;
35877;SDS011;21982;49.804;24.072;2023-06-22T12:03:03;13.50;;;8.45;;
35877;SDS011;21982;49.804;24.072;2023-06-22T12:05:28;11.95;;;9.65;;
35877;SDS011;21982;49.804;24.072;2023-06-22T12:07:54;16.92;;;11.93;;
35877;SDS011;21982;49.804;24.072;2023-06-22T12:10:20;18.88;;;10.98;;
35877;SDS011;21982;49.804;24.072;2023-06-22T12:12:46;15.13;;;9.95;;
35877;SDS011;21982;49.804;24.072;2023-06-22T12:15:13;16.90;;;12.32;;
35877;SDS011;21982;49.804;24.072;2023-06-22T12:17:39;15.07;;;12.30;;
35877;SDS011;21982;49.804;24.072;2023-06-22T12:20:05;12.73;;;10.63;;
35877;SDS011;21982;49.804;24.072;2023-06-22T12:22:32;13.95;;;11.80;;
35877;SDS011;21982;49.804;24.072;2023-06-22T12:24:57;13.75;;;9.05;;
35877;SDS011;21982;49.804;24.072;2023-06-22T12:27:23;13.93;;;8.57;;
35877;SDS011;21982;49.804;24.072;2023-06-22T12:29:48;16.15;;;11.77;;
35877;SDS011;21982;49.804;24.072;2023-06-22T12:32:14;20.55;;;11.95;;
35877;SDS011;21982;49.804;24.072;2023-06-22T12:34:42;13.88;;;9.07;;
35877;SDS011;21982;49.804;24.072;2023-06-22T12:37:11;17.23;;;10.90;;
35877;SDS011;21982;49.804;24.072;2023-06-22T12:39:36;15.13;;;10.95;;
35877;SDS011;21982;49.804;24.072;2023-06-22T12:42:01;15.23;;;11.13;;
35877;SDS011;21982;49.804;24.072;2023-06-22T12:44:27;16.45;;;11.38;;
35877;SDS011;21982;49.804;24.072;2023-06-22T12:46:53;22.48;;;15.80;;
35877;SDS011;21982;49.804;24.072;2023-06-22T12:49:18;13.70;;;10.52;;
35877;SDS011;21982;49.804;24.072;2023-06-22T12:51:44;14.60;;;11.50;;
35877;SDS011;21982;49.804;24.072;2023-06-22T12:54:10;15.55;;;10.20;;
35877;SDS011;21982;49.804;24.072;2023-06-22T12:56:36;21.10;;;11.27;;
35877;SDS011;21982;49.804;24.072;2023-06-22T12:59:06;16.02;;;11.52;;
35877;SDS011;21982;49.804;24.072;2023-06-22T13:01:31;14.45;;;9.45;;
35877;SDS011;21982;49.804;24.072;2023-06-22T13:03:57;14.80;;;9.60;;
35877;SDS011;21982;49.804;24.072;2023-06-22T13:06:23;14.13;;;9.93;;
35877;SDS011;21982;49.804;24.072;2023-06-22T13:08:49;14.07;;;8.50;;
35877;SDS011;21982;49.804;24.072;2023-06-22T13:11:14;12.75;;;8.07;;
35877;SDS011;21982;49.804;24.072;2023-06-22T13:13:40;14.23;;;9.57;;
35877;SDS011;21982;49.804;24.072;2023-06-22T13:16:05;14.32;;;9.10;;
35877;SDS011;21982;49.804;24.072;2023-06-22T13:18:30;16.60;;;11.50;;
35877;SDS011;21982;49.804;24.072;2023-06-22T13:20:56;19.20;;;14.98;;
35877;SDS011;21982;49.804;24.072;2023-06-22T13:23:23;21.02;;;14.77;;
35877;SDS011;21982;49.804;24.072;2023-06-22T13:25:48;14.98;;;10.27;;
35877;SDS011;21982;49.804;24.072;2023-06-22T13:28:14;16.05;;;9.55;;
35877;SDS011;21982;49.804;24.072;2023-06-22T13:30:41;20.45;;;10.73;;
35877;SDS011;21982;49.804;24.072;2023-06-22T13:33:06;16.15;;;8.40;;
35877;SDS011;21982;49.804;24.072;2023-06-22T13:35:32;13.40;;;8.45;;
35877;SDS011;21982;49.804;24.072;2023-06-22T13:37:57;14.27;;;7.75;;
35877;SDS011;21982;49.804;24.072;2023-06-22T13:40:22;13.90;;;10.18;;
35877;SDS011;21982;49.804;24.072;2023-06-22T13:42:48;15.55;;;9.95;;
35877;SDS011;21982;49.804;24.072;2023-06-22T13:45:14;20.08;;;12.80;;
35877;SDS011;21982;49.804;24.072;2023-06-22T13:47:42;19.75;;;14.35;;
35877;SDS011;21982;49.804;24.072;2023-06-22T13:50:08;16.40;;;9.95;;
35877;SDS011;21982;49.804;24.072;2023-06-22T13:52:34;13.35;;;10.15;;
35877;SDS011;21982;49.804;24.072;2023-06-22T13:54:59;14.73;;;7.75;;
35877;SDS011;21982;49.804;24.072;2023-06-22T13:57:25;14.55;;;8.23;;
35877;SDS011;21982;49.804;24.072;2023-06-22T13:59:50;13.75;;;10.20;;
35877;SDS011;21982;49.804;24.072;2023-06-22T14:02:16;14.55;;;9.45;;
35877;SDS011;21982;49.804;24.072;2023-06-22T14:04:41;16.20;;;10.88;;
35877;SDS011;21982;49.804;24.072;2023-06-22T14:07:07;14.23;;;8.05;;
35877;SDS011;21982;49.804;24.072;2023-06-22T14:09:32;16.90;;;10.07;;
35877;SDS011;21982;49.804;24.072;2023-06-22T14:11:57;12.77;;;8.30;;
35877;SDS011;21982;49.804;24.072;2023-06-22T14:14:27;20.10;;;9.75;;
35877;SDS011;21982;49.804;24.072;2023-06-22T14:16:52;15.82;;;7.28;;
35877;SDS011;21982;49.804;24.072;2023-06-22T14:19:18;18.08;;;10.73;;
35877;SDS011;21982;49.804;24.072;2023-06-22T14:21:43;13.55;;;10.48;;
35877;SDS011;21982;49.804;24.072;2023-06-22T14:24:09;24.75;;;15.63;;
35877;SDS011;21982;49.804;24.072;2023-06-22T14:26:34;14.68;;;8.32;;
35877;SDS011;21982;49.804;24.072;2023-06-22T14:28:59;12.02;;;8.65;;
35877;SDS011;21982;49.804;24.072;2023-06-22T14:31:25;19.20;;;15.25;;
35877;SDS011;21982;49.804;24.072;2023-06-22T14:33:50;12.88;;;8.27;;
35877;SDS011;21982;49.804;24.072;2023-06-22T14:36:16;12.32;;;7.70;;
35877;SDS011;21982;49.804;24.072;2023-06-22T14:38:44;15.88;;;11.98;;
35877;SDS011;21982;49.804;24.072;2023-06-22T14:41:11;15.43;;;9.00;;
35877;SDS011;21982;49.804;24.072;2023-06-22T14:43:36;29.27;;;10.95;;